createdAt,value
2023-03-24T00:03:01.599Z,96373.91
2023-03-24T00:08:06.857Z,96366.16
2023-03-24T00:13:10.199Z,96365.50
2023-03-24T00:18:13.568Z,96366.31
2023-03-24T00:23:18.309Z,96356.69
2023-03-24T00:28:21.737Z,96351.22
2023-03-24T00:33:25.439Z,96355.53
2023-03-24T00:38:30.269Z,96357.69
2023-03-24T00:43:34.025Z,96364.34
2023-03-24T00:48:38.304Z,96359.50
2023-03-24T00:53:43.738Z,96348.38
2023-03-24T00:58:47.112Z,96339.78
2023-03-24T01:03:51.060Z,96327.47
2023-03-24T01:08:56.333Z,96335.59
2023-03-24T01:13:59.581Z,96339.06
2023-03-24T01:19:02.914Z,96329.44
2023-03-24T01:24:08.417Z,96302.84
2023-03-24T01:29:11.737Z,96300.66
2023-03-24T01:34:14.900Z,96281.56
2023-03-24T01:39:19.670Z,96277.19
2023-03-24T01:44:32.836Z,96274.88
2023-03-24T01:49:39.414Z,96254.59
2023-03-24T01:54:47.135Z,96255.13
2023-03-24T01:59:55.390Z,96244.00
2023-03-24T02:05:24.237Z,96243.38
2023-03-24T02:10:34.055Z,96238.19
2023-03-24T02:15:43.885Z,96241.88
2023-03-24T02:21:16.828Z,96231.22
2023-03-24T02:26:52.983Z,96219.78
2023-03-24T02:32:13.843Z,96218.50
2023-03-24T02:37:43.153Z,96198.78
2023-03-24T02:43:15.612Z,96198.28
2023-03-24T02:48:25.472Z,96191.25
2023-03-24T02:53:34.252Z,96173.22
2023-03-24T02:59:05.905Z,96164.25
2023-03-24T03:04:16.860Z,96159.81
2023-03-24T03:09:23.077Z,96148.31
2023-03-24T03:14:35.372Z,96145.56
2023-03-24T03:19:43.583Z,96133.91
2023-03-24T03:24:53.206Z,96134.56
2023-03-24T03:30:02.863Z,96132.03
2023-03-24T03:35:11.008Z,96124.22
2023-03-24T03:40:18.939Z,96106.19
2023-03-24T03:45:28.100Z,96109.09
2023-03-24T03:50:32.414Z,96103.78
2023-03-24T03:55:42.918Z,96108.22
2023-03-24T04:00:47.876Z,96105.81
2023-03-24T04:06:25.369Z,96100.53
2023-03-24T04:11:55.005Z,96099.25
2023-03-24T04:17:57.648Z,96083.47
2023-03-24T04:23:40.041Z,96094.97
2023-03-24T04:28:52.722Z,96084.09
2023-03-24T04:34:03.792Z,96077.63
2023-03-24T04:39:08.058Z,96069.47
2023-03-24T04:44:22.646Z,96036.38
2023-03-24T04:49:45.071Z,96039.41
2023-03-24T04:54:48.974Z,96046.13
2023-03-24T04:59:52.766Z,96042.53
2023-03-24T05:04:58.749Z,96022.75
2023-03-24T05:10:11.912Z,96006.47
2023-03-24T05:15:24.832Z,96012.97
2023-03-24T05:20:35.089Z,95984.66
2023-03-24T05:25:49.368Z,95996.44
2023-03-24T05:30:54.518Z,95988.56
2023-03-24T05:36:13.689Z,95966.81
2023-03-24T05:41:19.234Z,95969.09
2023-03-24T05:46:24.587Z,95989.66
2023-03-24T05:51:31.295Z,95983.31
2023-03-24T05:56:40.618Z,95989.59
2023-03-24T06:02:07.487Z,96005.31
2023-03-24T06:07:26.713Z,96017.03
2023-03-24T06:12:32.104Z,96023.41
2023-03-24T06:17:38.545Z,96049.94
2023-03-24T06:22:50.511Z,96028.56
2023-03-24T06:28:04.294Z,96040.53
2023-03-24T06:33:09.441Z,96068.22
2023-03-24T06:38:14.888Z,96052.63
2023-03-24T06:43:19.703Z,96046.81
2023-03-24T06:48:23.111Z,96049.50
2023-03-24T06:53:30.136Z,96061.56
2023-03-24T06:58:34.022Z,96064.41
2023-03-24T07:03:42.087Z,96058.59
2023-03-24T07:09:07.381Z,96055.59
2023-03-24T07:14:10.942Z,96037.66
2023-03-24T07:19:14.270Z,96050.63
2023-03-24T07:24:22.245Z,96034.72
2023-03-24T07:29:35.191Z,96027.97
2023-03-24T07:34:53.684Z,96021.59
2023-03-24T07:39:58.749Z,96015.06
2023-03-24T07:45:01.960Z,96022.31
2023-03-24T07:50:10.146Z,96016.00
2023-03-24T07:55:15.872Z,96013.06
2023-03-24T08:00:33.795Z,96032.38
2023-03-24T08:05:55.273Z,96036.50
2023-03-24T08:11:08.072Z,96058.66
2023-03-24T08:16:11.576Z,96054.06
2023-03-24T08:21:14.920Z,96052.44
2023-03-24T08:26:19.713Z,96050.13
2023-03-24T08:31:23.076Z,96063.47
2023-03-24T08:36:26.647Z,96087.69
2023-03-24T08:41:35.246Z,96093.13
2023-03-24T08:46:39.565Z,96091.69
2023-03-24T08:51:43.170Z,96097.16
2023-03-24T08:56:47.965Z,96089.88
2023-03-24T09:01:51.328Z,96093.94
2023-03-24T09:07:01.685Z,96100.56
2023-03-24T09:12:08.054Z,96075.31
2023-03-24T09:17:11.506Z,96078.13
2023-03-24T09:22:14.731Z,96084.16
2023-03-24T09:27:19.436Z,96082.13
2023-03-24T09:32:22.693Z,96070.41
2023-03-24T09:37:25.837Z,96078.50
2023-03-24T09:42:35.434Z,96071.25
2023-03-24T09:47:43.115Z,96071.91
2023-03-24T09:52:49.856Z,96060.19
2023-03-24T09:57:57.691Z,96060.16
2023-03-24T10:03:03.902Z,96083.84
2023-03-24T10:08:16.402Z,96097.41
2023-03-24T10:13:28.062Z,96081.44
2023-03-24T10:18:38.419Z,96096.13
2023-03-24T10:23:47.492Z,96089.06
2023-03-24T10:28:54.536Z,96104.84
2023-03-24T10:33:58.066Z,96090.81
2023-03-24T10:39:16.629Z,96092.63
2023-03-24T10:44:25.190Z,96091.69
2023-03-24T10:49:28.442Z,96094.81
2023-03-24T10:54:32.741Z,96098.81
2023-03-24T10:59:40.207Z,96093.75
2023-03-24T11:04:49.758Z,96115.22
2023-03-24T11:10:01.982Z,96169.88
2023-03-24T11:15:21.314Z,96214.72
2023-03-24T11:20:33.237Z,96228.09
2023-03-24T11:25:40.084Z,96246.47
2023-03-24T11:30:49.738Z,96264.38
2023-03-24T11:36:03.183Z,96258.03
2023-03-24T11:41:23.054Z,96260.72
2023-03-24T11:46:27.743Z,96244.13
2023-03-24T11:51:35.562Z,96233.75
2023-03-24T11:56:43.820Z,96248.63
2023-03-24T12:01:58.854Z,96282.84
2023-03-24T12:07:32.092Z,96280.66
2023-03-24T12:12:43.731Z,96279.16
2023-03-24T12:17:58.217Z,96296.44
2023-03-24T12:23:08.196Z,96289.84
2023-03-24T12:28:28.518Z,96276.50
2023-03-24T12:33:48.027Z,96287.63
2023-03-24T12:39:01.249Z,96249.38
2023-03-24T12:44:40.464Z,96243.03
2023-03-24T12:50:08.868Z,96234.03
2023-03-24T12:55:17.716Z,96215.63
2023-03-24T13:00:25.963Z,96203.72
2023-03-24T13:05:33.383Z,96211.13
2023-03-24T13:10:40.539Z,96201.88
2023-03-24T13:15:48.615Z,96218.88
2023-03-24T13:20:57.020Z,96212.19
2023-03-24T13:26:07.972Z,96177.09
2023-03-24T13:31:13.189Z,96170.53
2023-03-24T13:36:40.869Z,96163.25
2023-03-24T13:41:51.057Z,96165.53
2023-03-24T13:47:12.779Z,96165.88
2023-03-24T13:52:29.132Z,96163.75
2023-03-24T13:57:32.781Z,96180.00
2023-03-24T14:02:47.084Z,96181.56
2023-03-24T14:07:53.132Z,96196.09
2023-03-24T14:13:02.960Z,96176.53
2023-03-24T14:18:17.655Z,96181.28
2023-03-24T14:23:31.669Z,96199.41
2023-03-24T14:28:39.095Z,96185.31
2023-03-24T14:34:05.895Z,96185.69
2023-03-24T14:39:21.724Z,96198.25
2023-03-24T14:44:57.282Z,96204.44
2023-03-24T14:50:05.008Z,96209.06
2023-03-24T14:55:16.479Z,96206.09
2023-03-24T15:00:23.776Z,96221.84
2023-03-24T15:05:31.139Z,96208.00
2023-03-24T15:10:40.970Z,96213.25
2023-03-24T15:15:48.734Z,96213.44
2023-03-24T15:20:52.338Z,96222.81
2023-03-24T15:25:58.575Z,96217.06
2023-03-24T15:31:02.819Z,96211.63
2023-03-24T15:36:16.603Z,96214.41
2023-03-24T15:41:24.522Z,96195.03
2023-03-24T15:46:29.797Z,96192.72
2023-03-24T15:51:50.297Z,96193.69
2023-03-24T15:57:20.376Z,96198.63
2023-03-24T16:02:31.492Z,96209.31
2023-03-24T16:07:37.633Z,96219.94
2023-03-24T16:12:42.381Z,96229.88
2023-03-24T16:17:45.886Z,96217.44
2023-03-24T16:22:49.130Z,96209.00
2023-03-24T16:27:53.770Z,96210.19
2023-03-24T16:32:57.074Z,96225.91
2023-03-24T16:38:00.415Z,96230.22
2023-03-24T16:43:05.343Z,96233.56
2023-03-24T16:48:08.747Z,96240.03
2023-03-24T16:53:12.353Z,96232.38
2023-03-24T16:58:18.243Z,96231.41
2023-03-24T17:03:23.652Z,96228.38
2023-03-24T17:08:27.049Z,96226.09
2023-03-24T17:13:31.545Z,96233.00
2023-03-24T17:18:34.838Z,96240.09
2023-03-24T17:23:38.650Z,96231.84
2023-03-24T17:28:43.326Z,96225.81
2023-03-24T17:33:46.761Z,96222.69
2023-03-24T17:38:49.908Z,96232.81
2023-03-24T17:43:54.428Z,96236.41
2023-03-24T17:48:57.613Z,96233.91
2023-03-24T17:54:00.924Z,96250.66
2023-03-24T17:59:05.975Z,96225.88
2023-03-24T18:04:09.422Z,96243.84
2023-03-24T18:09:12.598Z,96257.91
2023-03-24T18:14:17.371Z,96247.06
2023-03-24T18:19:21.043Z,96265.03
2023-03-24T18:24:25.612Z,96266.69
2023-03-24T18:29:30.459Z,96268.25
2023-03-24T18:34:36.115Z,96275.09
2023-03-24T18:39:40.684Z,96274.31
2023-03-24T18:44:45.809Z,96273.75
2023-03-24T18:49:48.958Z,96261.13
2023-03-24T18:54:53.405Z,96272.66
2023-03-24T19:00:01.215Z,96274.00
2023-03-24T19:05:05.181Z,96273.78
2023-03-24T19:10:09.094Z,96272.25
2023-03-24T19:15:14.608Z,96273.28
2023-03-24T19:20:17.941Z,96274.22
2023-03-24T19:25:22.548Z,96269.41
2023-03-24T19:30:27.513Z,96276.72
2023-03-24T19:35:31.366Z,96288.25
2023-03-24T19:40:34.976Z,96285.66
2023-03-24T19:45:42.794Z,96295.72
2023-03-24T19:50:46.706Z,96280.25
2023-03-24T19:55:50.392Z,96293.66
2023-03-24T20:00:55.245Z,96297.22
2023-03-24T20:06:05.066Z,96302.38
2023-03-24T20:11:09.466Z,96302.41
2023-03-24T20:16:15.881Z,96305.63
2023-03-24T20:21:22.834Z,96298.84
2023-03-24T20:26:26.044Z,96308.00
2023-03-24T20:31:30.670Z,96288.59
2023-03-24T20:36:34.115Z,96300.63
2023-03-24T20:41:37.306Z,96308.16
2023-03-24T20:46:42.873Z,96306.06
2023-03-24T20:51:48.527Z,96306.72
2023-03-24T20:56:52.353Z,96316.97
2023-03-24T21:01:58.422Z,96322.22
2023-03-24T21:07:01.710Z,96327.03
2023-03-24T21:12:06.616Z,96328.19
2023-03-24T21:17:11.306Z,96332.44
2023-03-24T21:22:15.925Z,96325.41
2023-03-24T21:27:21.404Z,96339.28
2023-03-24T21:32:26.550Z,96322.75
2023-03-24T21:37:31.930Z,96327.50
2023-03-24T21:42:35.147Z,96338.47
2023-03-24T21:47:39.965Z,96330.97
2023-03-24T21:52:46.976Z,96350.72
2023-03-24T21:57:52.488Z,96349.72
2023-03-24T22:02:58.315Z,96343.97
2023-03-24T22:08:02.498Z,96331.28
2023-03-24T22:13:05.780Z,96323.69
2023-03-24T22:18:10.827Z,96320.53
2023-03-24T22:23:14.334Z,96302.34
2023-03-24T22:28:17.585Z,96310.84
2023-03-24T22:33:22.448Z,96278.00
2023-03-24T22:38:25.976Z,96298.75
2023-03-24T22:43:30.404Z,96294.97
2023-03-24T22:48:35.258Z,96285.78
2023-03-24T22:53:38.346Z,96274.53
2023-03-24T22:58:41.781Z,96283.69
2023-03-24T23:03:46.510Z,96283.78
2023-03-24T23:08:50.550Z,96286.81
2023-03-24T23:13:54.133Z,96269.91
2023-03-24T23:18:58.676Z,96267.38
2023-03-24T23:24:01.883Z,96257.31
2023-03-24T23:29:05.111Z,96255.41
2023-03-24T23:34:11.987Z,96248.78
2023-03-24T23:39:15.052Z,96249.44
2023-03-24T23:44:19.804Z,96249.84
2023-03-24T23:49:24.546Z,96252.88
2023-03-24T23:54:27.665Z,96252.34
2023-03-24T23:59:30.703Z,96261.31
